UGKO/KIU METAR and TAF weather

Enter ICAO airport designator
Station Type Date Time Source
UGKO METAR 2024/07/13 03:00 UTC NOAA

UGKO 130300Z 04003KT 360V090 CAVOK 21/19 Q1006 NOSIG


Station Type Date Time Source
UGKO Decoded METAR 2024/07/13 03:00 UTC NOAA

Station name not available
Jul 12, 2024 - 11:00 PM EDT / 2024.07.13 0300 UTC
Wind: from the NE (040 degrees) at 3 MPH (3 KT) (direction variable):0
Visibility: greater than 7 mile(s):0
Temperature: 69 F (21 C)
Dew Point: 66 F (19 C)
Relative Humidity: 88%
Pressure (altimeter): 29.71 in. Hg (1006 hPa)
ob: UGKO 130300Z 04003KT 360V090 CAVOK 21/19 Q1006 NOSIG
cycle: 3

Station Type Date Time Source
UGKO TAF 2024/07/12 18:05 UTC NOAA